Tiempo atmosférico en la estación meteorológica de Montehermoso, Cáceres (351 m.)



Fecha
DESCASC
Temp. máxima en grados centígrados (hora)
DESCASC
Temp. mínima en grados centígrados (hora)
DESCASC
Temp. media en grados centígrados
DESCASC
Racha de viento máxima en m/sg (hora)
DESCASC
Velocidad máxima media en intervalos de 10 minutos(hora)
DESCASC
Precipitaciones diarias en mm
DESCASC
Precipitaciones de 00:00 a 06:00 en mm
DESCASC
Precipitaciones de 06:00 a 12:00 en mm
DESCASC
Precipitaciones de 12:00 a 18:00 en mm
DESCASC
Precipitaciones de 18:00 a 24:00 en mm
DESCASC
30-11-2020 16.7 (16:20) 8.3 (22:30) 12.5 5.83 (15:30) 3.06 (15:40) 6.4 6.2 0 0.2 0
29-11-2020 14.1 (14:40) 9.4 (00:00) 11.8 11.94 (13:20) 6.94 (13:20) 16.2 2.2 0 0.2 13.8
28-11-2020 13 (15:00) 5.8 (00:00) 9.4 6.67 (23:10) 3.89 (23:20) 0 0 0 0 0
27-11-2020 13.9 (14:40) 8.6 (00:00) 11.3 9.72 (16:00) 5.56 (16:10) 0.6 0 0.6 0 0
26-11-2020 10.8 (15:00) 8.7 (00:00) 9.8 10.56 (11:20) 5.28 (11:20) 10.2 4.8 2.6 2.6 0.2
25-11-2020 11.2 (18:00) 7.4 (00:00) 9.3 8.06 (16:30) 4.72 (17:20) 24 0 17 5.2 1.8
24-11-2020 15.4 (15:10) 3.5 (00:00) 9.4 3.06 (14:30) 1.94 (15:50) 0 0 0 0 0
23-11-2020 17.4 (17:00) 2.9 (00:00) 10.1 2.78 (12:40) 1.67 (12:30) 0 0 0 0 0
22-11-2020 17.3 (15:20) 4.1 (00:00) 10.7 5 (07:10) 2.78 (07:20) 0 0 0 0 0
21-11-2020 19.1 (15:20) 6.3 (00:00) 12.7 4.72 (12:40) 2.78 (12:50) 0 0 0 0 0
20-11-2020 20.9 (15:50) 12 (00:00) 16.4 7.78 (09:30) 4.17 (10:10) 0 0 0 0 0
19-11-2020 23.2 (13:50) 7.6 (00:00) 15.4 8.61 (12:30) 3.61 (23:00) 0.2 0 0.2 0 0
18-11-2020 17.7 (15:10) 8.3 (00:00) 13 5 (15:10) 2.5 (13:10) 0 0 0 0 0
17-11-2020 18.4 (16:40) 7.7 (00:00) 13 3.61 (13:20) 1.94 (13:20) 0 0 0 0 0
16-11-2020 19.8 (15:10) 11.1 (00:00) 15.4 4.44 (15:30) 2.5 (14:30) 0.2 0 0.2 0 0
15-11-2020 19.5 (15:00) 13.1 (00:00) 16.3 5.83 (12:20) 3.33 (12:10) 3.2 3 0.2 0 0
14-11-2020 14.1 (17:00) 12.2 (00:00) 13.2 3.61 (07:30) 2.22 (07:30) 3.2 0 1.6 1.4 0.2
13-11-2020 16.7 (14:50) 9.3 (00:00) 13 5.83 (15:00) 3.61 (14:20) 0 0 0 0 0
12-11-2020 17 (16:00) 9.4 (00:00) 13.2 5 (15:00) 3.06 (15:00) 0 0 0 0 0
11-11-2020 18.1 (16:40) 6.8 (00:00) 12.5 6.39 (12:00) 3.89 (11:20) 0 0 0 0 0
10-11-2020 18.6 (15:50) 6.3 (00:00) 12.5 4.17 (15:20) 2.5 (14:10) 0.2 0 0.2 0 0
09-11-2020 17.3 (13:50) 9.2 (00:00) 13.2 4.44 (13:50) 2.78 (14:50) 1.6 1.6 0 0 0
08-11-2020 14 (12:50) 12.2 (00:00) 13.1 8.89 (12:50) 5.28 (12:40) 22.2 0 0.6 14.4 7.2
07-11-2020 16.2 (13:10) 12 (00:00) 14.1 7.78 (14:30) 4.44 (14:30) 9.4 5.6 3.8 0 0
06-11-2020 18.4 (16:00) 12.3 (00:00) 15.3 21.94 (18:10) 10.83 (10:40) 16.2 4.4 0.4 0 11.4
05-11-2020 15.8 (13:20) 10.6 (00:00) 13.2 16.39 (10:10) 8.61 (07:30) 17 2.4 1 13.6 0
04-11-2020 13.5 (00:00) 9.7 (00:00) 11.6 10.83 (08:40) 5.28 (11:00) 1.4 0 0 0.4 1
03-11-2020 18.3 (13:00) 12.8 (00:00) 15.5 11.11 (19:30) 5.83 (16:00) 0 0 0 0 0
02-11-2020 18.9 (14:40) 13.6 (00:00) 16.3 3.33 (20:30) 2.22 (20:00) 0 0 0 0 0

Gráficas

Temp. máximas Temp. mínimas Temp. medias Precipitaciones Rachas de viento máximas Velocidades máximas media en intervalos de 10 minutos

Datos horarios

Fecha y hora oficial Temperatura (ºC) Velocidad del viento (km/h) Dirección del viento Racha (km/h) Dirección de racha Precipitación (mm) Presión (hPa) Tendencia (hPa) Humedad (%)
2020-12-01 23:00:00 8.2 4 Nordeste 17 Nordeste 0 -- -- 70
2020-12-01 22:00:00 8.3 5 Este 11 Norte 0 -- -- 70
2020-12-01 21:00:00 7.3 3 Este 6 Nordeste 0 -- -- 83
2020-12-01 20:00:00 8.8 0 Calma 9 Oeste 0 -- -- 85
2020-12-01 19:00:00 10.4 6 Noroeste 9 Noroeste 0 -- -- 86
2020-12-01 18:00:00 14 2 Norte 6 Nordeste 0 -- -- 82
2020-12-01 17:00:00 17 4 Sur 8 Oeste 0 -- -- 70
2020-12-01 16:00:00 17.2 6 Sudoeste 11 Sudoeste 0 -- -- 66
2020-12-01 15:00:00 16.9 5 Sudeste 10 Sudoeste 0 -- -- 66
2020-12-01 14:00:00 16.2 3 Sur 10 Sur 0 -- -- 63
2020-12-01 13:00:00 14.7 4 Sudeste 9 Sur 0 -- -- 72
2020-12-01 12:00:00 13.3 4 Nordeste 8 Sudeste 0 -- -- 77
2020-12-01 11:00:00 10.7 2 Norte 5 Norte 0 -- -- 83
2020-12-01 10:00:00 7.9 0 Calma 6 Sudeste 0 -- -- 99
2020-12-01 09:00:00 5.5 0 Calma 5 Sur 0 -- -- 98
2020-12-01 08:00:00 5.2 0 Calma 5 Norte 0 -- -- 98
2020-12-01 07:00:00 5.5 2 Noroeste 6 Oeste 0 -- -- 97
2020-12-01 06:00:00 6.1 3 Noroeste 5 Norte 0 -- -- 97
2020-12-01 05:00:00 6.9 3 Noroeste 5 Norte 0 -- -- 98
2020-12-01 04:00:00 6.9 2 Norte 4 Norte 0 -- -- 96
2020-12-01 03:00:00 7.9 5 Sudeste 8 Sudeste 0 -- -- 94
2020-12-01 02:00:00 10 5 Norte 14 Norte 0 -- -- 87
2020-12-01 01:00:00 7.9 3 Oeste 7 Este 0 -- -- 95
2020-12-01 00:00:00 8.5 4 Noroeste 9 Sudeste 0 -- -- 94
2020-11-30 23:00:00 9.4 8 Sudeste 13 Sudeste 0 -- -- 96
2020-11-30 22:00:00 8.5 3 Norte 6 Norte 0 -- -- 96
2020-11-30 21:00:00 9.2 2 Noroeste 8 Sudeste 0 -- -- 95
2020-11-30 20:00:00 9.8 3 Noroeste 5 Oeste 0 -- -- 94
2020-11-30 19:00:00 10.7 2 Norte 5 Noroeste 0 -- -- 91
2020-11-30 18:00:00 13.9 0 Calma 13 Sudeste 0 -- -- 80
2020-11-30 17:00:00 15.8 7 Sudeste 18 Sudeste 0 -- -- 72
2020-11-30 16:00:00 16.2 9 Sudeste 21 Este 0 -- -- 73
2020-11-30 15:00:00 15.8 7 Este 16 Este 0 -- -- 76
2020-11-30 14:00:00 14.3 6 Nordeste 16 Este 0 -- -- 79
2020-11-30 13:00:00 13.6 5 Este 13 Sudeste 0.2 -- -- 81
2020-11-30 12:00:00 12.9 2 Este 13 Sudeste 0 -- -- 86
2020-11-30 11:00:00 11.4 7 Sudeste 12 Sudeste 0 -- -- 96
2020-11-30 10:00:00 10.2 2 Nordeste 8 Nordeste 0 -- -- 98
2020-11-30 09:00:00 8.7 5 Nordeste 14 Este 0 -- -- 98
2020-11-30 08:00:00 8.8 2 Este 8 Este 0 -- -- 98
2020-11-30 07:00:00 8.8 4 Este 10 Este 0 -- -- 97
2020-11-30 06:00:00 9.7 4 Sudeste 13 Norte 0 -- -- 97
2020-11-30 05:00:00 10.1 4 Nordeste 11 Norte 0 -- -- 98
2020-11-30 04:00:00 10.1 4 Este 8 Nordeste 0.4 -- -- 97
2020-11-30 03:00:00 10.3 2 Nordeste 9 Este 1.6 -- -- 97
2020-11-30 02:00:00 10.4 3 Este 8 Nordeste 1.4 -- -- 97
2020-11-30 01:00:00 10.4 0 Calma 10 Este 2.8 -- -- 96
2020-11-30 00:00:00 10.4 2 Nordeste 14 Este 2.6 -- -- 96
2020-11-29 23:00:00 10.4 8 Este 16 Este 3 -- -- 96
2020-11-29 22:00:00 10.7 5 Sudeste 14 Este 2 -- -- 94
2020-11-29 21:00:00 10.9 4 Sur 21 Sudeste 2.6 -- -- 93
2020-11-29 20:00:00 11.1 10 Sudeste 25 Sudeste 3.6 -- -- 90
2020-11-29 19:00:00 11.6 12 Sudeste 21 Este 0 -- -- 88
2020-11-29 18:00:00 11.6 5 Este 25 Este 0.2 -- -- 89
2020-11-29 17:00:00 11.8 9 Este 22 Sudeste 0 -- -- 87
2020-11-29 16:00:00 12.4 9 Sudeste 27 Sudeste 0 -- -- 84
2020-11-29 15:00:00 13.3 14 Sudeste 31 Este 0 -- -- 80
2020-11-29 14:00:00 12.9 18 Sudeste 43 Este 0 -- -- 81
2020-11-29 13:00:00 12.2 19 Sudeste 36 Sudeste 0 -- -- 85
2020-11-29 12:00:00 10.9 17 Sudeste 38 Sudeste 0 -- -- 89
2020-11-29 11:00:00 10.8 15 Sudeste 37 Sudeste 0 -- -- 89
2020-11-29 10:00:00 10.1 14 Sudeste 26 Este 0 -- -- 93
2020-11-29 09:00:00 9.6 8 Sudeste 20 Sudeste 0 -- -- 95
2020-11-29 08:00:00 9.4 9 Sudeste 20 Sudeste 0 -- -- 95
2020-11-29 07:00:00 9.4 7 Sudeste 26 Sudeste 0 -- -- 96
2020-11-29 06:00:00 9.6 13 Este 24 Este 0.4 -- -- 96
2020-11-29 05:00:00 9.7 11 Sudeste 27 Sudeste 0.6 -- -- 96
2020-11-29 04:00:00 9.8 15 Sudeste 28 Sudeste 0.4 -- -- 95
2020-11-29 03:00:00 10.3 10 Sur 19 Sur 0.8 -- -- 92
2020-11-29 02:00:00 10.5 5 Sudeste 19 Este 0 -- -- 91
2020-11-29 01:00:00 10.7 11 Sudeste 25 Este 0 -- -- 90
2020-11-29 00:00:00 10.8 6 Sudeste 24 Sudeste 0 -- -- 90
2020-11-28 23:00:00 11.3 11 Sudeste 23 Sudeste 0 -- -- 86
2020-11-28 22:00:00 11.1 5 Sudeste 17 Este 0 -- -- 86
2020-11-28 21:00:00 10.9 3 Sudeste 15 Este 0 -- -- 86
2020-11-28 20:00:00 11.1 8 Sudeste 14 Este 0 -- -- 87
2020-11-28 19:00:00 11.4 4 Este 9 Sudeste 0 -- -- 86
2020-11-28 18:00:00 12.1 5 Sudeste 11 Sudeste 0 -- -- 84
2020-11-28 17:00:00 12.5 6 Sudeste 12 Sudeste 0 -- -- 81
2020-11-28 16:00:00 12.6 6 Sudeste 12 Sudeste 0 -- -- 79
2020-11-28 15:00:00 13 4 Sur 9 Oeste 0 -- -- 79
2020-11-28 14:00:00 12.1 3 Sudeste 9 Sudeste 0 -- -- 83
2020-11-28 13:00:00 11.7 3 Sudoeste 7 Sudoeste 0 -- -- 81
2020-11-28 12:00:00 10.8 0 Calma 10 Sudeste 0 -- -- 84
2020-11-28 11:00:00 9.7 2 Norte 7 Este 0 -- -- 92
2020-11-28 10:00:00 8.2 2 Norte 8 Sudeste 0 -- -- 97
2020-11-28 09:00:00 7.5 0 Calma 3 Sudeste 0 -- -- 98
2020-11-28 08:00:00 7.3 0 Calma 3 Sudeste 0 -- -- 98
2020-11-28 07:00:00 6.9 0 Calma 6 Oeste 0 -- -- 98
2020-11-28 06:00:00 6.6 4 Sur 7 Sudeste 0 -- -- 98
2020-11-28 05:00:00 5.8 3 Oeste 4 Nordeste 0 -- -- 98
2020-11-28 04:00:00 5.9 2 Noroeste 5 Oeste 0 -- -- 97
2020-11-28 03:00:00 6.8 4 Sudeste 8 Sudeste 0 -- -- 96
2020-11-28 02:00:00 6.8 4 Sudeste 10 Norte 0 -- -- 95
2020-11-28 01:00:00 6.9 3 Noroeste 5 Noroeste 0 -- -- 95
2020-11-28 00:00:00 8.6 0 Calma 8 Oeste 0 -- -- 91
2020-11-27 23:00:00 9.7 4 Noroeste 9 Noroeste 0 -- -- 89
2020-11-27 22:00:00 10.4 5 Noroeste 13 Noroeste 0 -- -- 87
2020-11-27 21:00:00 9.3 6 Noroeste 10 Noroeste 0 -- -- 88
2020-11-27 20:00:00 9.4 3 Norte 11 Sudeste 0 -- -- 86
2020-11-27 19:00:00 11.7 8 Sudeste 14 Este 0 -- -- 74
2020-11-27 18:00:00 12 5 Este 30 Este 0 -- -- 74
2020-11-27 17:00:00 12.3 15 Sudeste 35 Sudeste 0 -- -- 77
2020-11-27 16:00:00 12.9 17 Sudeste 35 Sudeste 0 -- -- 75
2020-11-27 15:00:00 13.6 14 Sudeste 31 Sudeste 0 -- -- 74
2020-11-27 14:00:00 13.7 6 Este 13 Este 0 -- -- 80
2020-11-27 13:00:00 11.8 5 Sudeste 17 Sudeste 0 -- -- 90
2020-11-27 12:00:00 11.8 9 Norte 16 Norte 0 -- -- 86
2020-11-27 11:00:00 10.5 6 Norte 17 Este 0.6 -- -- 93
2020-11-27 10:00:00 11.8 4 Nordeste 13 Nordeste 0 -- -- 82
2020-11-27 09:00:00 11 8 Nordeste 17 Nordeste 0 -- -- 82
2020-11-27 08:00:00 10.5 7 Norte 21 Norte 0 -- -- 87
2020-11-27 07:00:00 10 10 Norte 19 Norte 0 -- -- 89
2020-11-27 06:00:00 10.1 3 Nordeste 17 Norte 0 -- -- 90
2020-11-27 05:00:00 9.3 8 Norte 14 Nordeste 0 -- -- 96
2020-11-27 04:00:00 9.1 0 Calma 8 Oeste 0 -- -- 97
2020-11-27 03:00:00 9.1 0 Calma 6 Sudeste 0 -- -- 97
2020-11-27 02:00:00 9.3 2 Nordeste 10 Norte 0 -- -- 97
2020-11-27 01:00:00 9.1 4 Norte 9 Norte 0 -- -- 97
2020-11-27 00:00:00 8.7 0 Calma 12 Nordeste 0 -- -- 96
2020-11-26 23:00:00 9.5 5 Norte 10 Norte 0 -- -- 96
2020-11-26 22:00:00 9.8 3 Nordeste 8 Este 0 -- -- 96
2020-11-26 21:00:00 9.9 4 Nordeste 10 Este 0 -- -- 96
2020-11-26 20:00:00 10.3 8 Este 17 Este 0 -- -- 97
2020-11-26 19:00:00 10.2 3 Este 10 Sudeste 0.2 -- -- 97
2020-11-26 18:00:00 10.2 3 Nordeste 7 Norte 0 -- -- 96
2020-11-26 17:00:00 10.3 3 Nordeste 7 Nordeste 0.4 -- -- 96
2020-11-26 16:00:00 10.5 5 Nordeste 14 Este 0.6 -- -- 96
2020-11-26 15:00:00 10.8 6 Este 15 Sudeste 1 -- -- 97
2020-11-26 14:00:00 10.6 10 Sudeste 23 Sudeste 0.4 -- -- 95
2020-11-26 13:00:00 10.4 9 Sudeste 22 Sudeste 0.2 -- -- 95
2020-11-26 12:00:00 10.3 13 Sudeste 38 Sudeste 0.4 -- -- 95
2020-11-26 11:00:00 10.2 17 Sudeste 30 Sudeste 0.2 -- -- 95
2020-11-26 10:00:00 10.2 15 Sudeste 26 Sudeste 0.2 -- -- 97
2020-11-26 09:00:00 9.6 5 Sudeste 26 Sudeste 1.6 -- -- 97
2020-11-26 08:00:00 10 5 Este 13 Sudeste 0.2 -- -- 97
2020-11-26 07:00:00 10.1 7 Sudeste 19 Sudeste 0 -- -- 97
2020-11-26 06:00:00 10.4 9 Sudeste 19 Sudeste 0.2 -- -- 97
2020-11-26 05:00:00 10.3 12 Sudeste 35 Sudeste 1.6 -- -- 97
2020-11-26 04:00:00 10.4 14 Sudeste 27 Sudeste 1 -- -- 97
2020-11-26 03:00:00 10.4 13 Sudeste 26 Este 0.6 -- -- 97
2020-11-26 02:00:00 10.6 11 Sudeste 19 Este 1.2 -- -- 97
2020-11-26 01:00:00 10.6 4 Sudeste 10 Sudeste 0.2 -- -- 98
2020-11-26 00:00:00 10.7 9 Sudeste 23 Sudeste 0.4 -- -- 97
2020-11-25 23:00:00 10.7 8 Sudeste 17 Sur 0 -- -- 98
2020-11-25 22:00:00 10.8 11 Sudeste 27 Sudeste 0.2 -- -- 98
2020-11-25 21:00:00 10.6 13 Sudeste 27 Sudeste 0 -- -- 98
2020-11-25 20:00:00 10.5 15 Sudeste 27 Sudeste 0.8 -- -- 97
2020-11-25 19:00:00 10.6 14 Sudeste 27 Sudeste 0.4 -- -- 95
2020-11-25 18:00:00 11.2 15 Sudeste 29 Sudeste 0 -- -- 91
2020-11-25 17:00:00 11 15 Sudeste 29 Sudeste 0 -- -- 93
2020-11-25 16:00:00 10.7 11 Sudeste 23 Sudeste 0 -- -- 95
2020-11-25 15:00:00 10.2 9 Sudeste 23 Sudeste 0.4 -- -- 97
2020-11-25 14:00:00 9.7 5 Sur 15 Sudeste 1.6 -- -- 97
2020-11-25 13:00:00 9.4 9 Sudeste 18 Sudeste 3.2 -- -- 97
2020-11-25 12:00:00 9.4 7 Sudeste 16 Este 5.8 -- -- 97
2020-11-25 11:00:00 9.1 10 Sudeste 18 Sudeste 4.2 -- -- 97
2020-11-25 10:00:00 9 10 Sudeste 22 Sudeste 3.4 -- -- 97
2020-11-25 09:00:00 8.7 10 Sudeste 22 Sudeste 1.6 -- -- 96
2020-11-25 08:00:00 9.2 5 Sudeste 15 Sudeste 1.8 -- -- 95
2020-11-25 07:00:00 9 4 Este 13 Este 0.2 -- -- 91
2020-11-25 06:00:00 8.9 2 Este 10 Sudeste 0 -- -- 90
2020-11-25 05:00:00 8.6 3 Sudeste 7 Sur 0 -- -- 92
2020-11-25 04:00:00 7.4 0 Calma 2 Nordeste 0 -- -- 95
2020-11-25 03:00:00 7.6 0 Calma 2 Este 0 -- -- 94
2020-11-25 02:00:00 8.3 0 Calma 2 Norte 0 -- -- 93
2020-11-25 01:00:00 9.4 0 Calma 4 Sur 0 -- -- 91
2020-11-25 00:00:00 9.9 0 Calma 4 Sudeste 0 -- -- 87
2020-11-24 23:00:00 10.3 0 Calma 6 Sudeste 0 -- -- 87
2020-11-24 22:00:00 9.9 3 Sudeste 5 Sudeste 0 -- -- 91
2020-11-24 21:00:00 10.5 0 Calma 2 Este 0 -- -- 89
2020-11-24 20:00:00 10.2 0 Calma 3 Noroeste 0 -- -- 89
2020-11-24 19:00:00 11.1 0 Calma 3 Oeste 0 -- -- 84
2020-11-24 18:00:00 13.3 3 Oeste 8 Oeste 0 -- -- 75
2020-11-24 17:00:00 13.8 0 Calma 7 Sur 0 -- -- 73
2020-11-24 16:00:00 14.9 5 Sur 11 Sur 0 -- -- 65
2020-11-24 15:00:00 15.3 3 Sur 11 Sudeste 0 -- -- 62
2020-11-24 14:00:00 13.9 3 Sur 10 Sur 0 -- -- 67
2020-11-24 13:00:00 12.7 5 Sur 10 Sudeste 0 -- -- 72
2020-11-24 12:00:00 11.3 4 Sudeste 8 Sudeste 0 -- -- 76
2020-11-24 11:00:00 9.7 3 Sur 6 Sudeste 0 -- -- 80
2020-11-24 10:00:00 7 0 Calma 6 Nordeste 0 -- -- 98
2020-11-24 09:00:00 3.6 0 Calma 3 Noroeste 0 -- -- 97
2020-11-24 08:00:00 3.5 2 Norte 4 Oeste 0 -- -- 96
2020-11-24 07:00:00 4.2 3 Oeste 5 Oeste 0 -- -- 97
2020-11-24 06:00:00 4 2 Noroeste 5 Noroeste 0 -- -- 96
2020-11-24 05:00:00 4.2 3 Oeste 5 Oeste 0 -- -- 96
2020-11-24 04:00:00 4 3 Noroeste 6 Oeste 0 -- -- 95
2020-11-24 03:00:00 4.8 5 Noroeste 8 Oeste 0 -- -- 96
2020-11-24 02:00:00 5.2 3 Noroeste 5 Noroeste 0 -- -- 94
2020-11-24 01:00:00 5.8 0 Calma 6 Oeste 0 -- -- 93
2020-11-24 00:00:00 6.1 4 Noroeste 6 Oeste 0 -- -- 94
2020-11-23 23:00:00 6.6 4 Noroeste 5 Noroeste 0 -- -- 93
2020-11-23 22:00:00 6.8 3 Noroeste 7 Oeste 0 -- -- 91
2020-11-23 21:00:00 8.1 4 Oeste 6 Oeste 0 -- -- 87
2020-11-23 20:00:00 8.7 4 Oeste 6 Oeste 0 -- -- 86
2020-11-23 19:00:00 9.9 4 Noroeste 5 Noroeste 0 -- -- 84
2020-11-23 18:00:00 14.2 0 Calma 3 Este 0 -- -- 71
2020-11-23 17:00:00 17.4 0 Calma 7 Sur 0 -- -- 53
2020-11-23 16:00:00 17 4 Sur 8 Sudeste 0 -- -- 54
2020-11-23 15:00:00 16.4 2 Sudeste 9 Sur 0 -- -- 57
2020-11-23 14:00:00 15.5 3 Sudoeste 10 Sudeste 0 -- -- 62
2020-11-23 13:00:00 14.3 2 Sudeste 10 Sudeste 0 -- -- 66
2020-11-23 12:00:00 12.8 5 Sudeste 9 Sur 0 -- -- 72
2020-11-23 11:00:00 10.2 4 Este 8 Este 0 -- -- 80
2020-11-23 10:00:00 6.6 0 Calma 4 Sudeste 0 -- -- 97
2020-11-23 09:00:00 3.9 0 Calma 6 Noroeste 0 -- -- 97
2020-11-23 08:00:00 3.2 3 Noroeste 5 Noroeste 0 -- -- 97
2020-11-23 07:00:00 3.1 0 Calma 4 Oeste 0 -- -- 96
2020-11-23 06:00:00 3.9 3 Noroeste 5 Oeste 0 -- -- 96
2020-11-23 05:00:00 3.9 2 Noroeste 3 Noroeste 0 -- -- 96
2020-11-23 04:00:00 4 0 Calma 4 Oeste 0 -- -- 95
2020-11-23 03:00:00 4.6 2 Noroeste 6 Oeste 0 -- -- 94
2020-11-23 02:00:00 5.3 3 Noroeste 5 Oeste 0 -- -- 95
2020-11-23 01:00:00 5.7 3 Oeste 6 Oeste 0 -- -- 94
2020-11-23 00:00:00 6 3 Noroeste 6 Noroeste 0 -- -- 92
2020-11-22 23:00:00 6.6 4 Noroeste 5 Noroeste 0 -- -- 91
2020-11-22 22:00:00 7.3 3 Noroeste 6 Oeste 0 -- -- 89
2020-11-22 21:00:00 8.1 4 Noroeste 5 Oeste 0 -- -- 88
2020-11-22 20:00:00 8.8 4 Noroeste 5 Oeste 0 -- -- 87
2020-11-22 19:00:00 10 3 Noroeste 4 Noroeste 0 -- -- 82
2020-11-22 18:00:00 14.1 0 Calma 4 Sur 0 -- -- 69
2020-11-22 17:00:00 16.9 3 Sur 9 Sudeste 0 -- -- 53
2020-11-22 16:00:00 17.2 5 Sur 9 Sur 0 -- -- 53
2020-11-22 15:00:00 16.9 4 Sur 11 Sudeste 0 -- -- 52
2020-11-22 14:00:00 16.3 6 Sudeste 10 Sudeste 0 -- -- 55
2020-11-22 13:00:00 14.8 4 Sudeste 13 Sudeste 0 -- -- 59
2020-11-22 12:00:00 13.3 6 Sudeste 13 Este 0 -- -- 63
2020-11-22 11:00:00 11.4 8 Este 15 Sudeste 0 -- -- 69
2020-11-22 10:00:00 9.8 4 Sudeste 12 Sudeste 0 -- -- 75
2020-11-22 09:00:00 5 0 Calma 5 Nordeste 0 -- -- 93
2020-11-22 08:00:00 5.1 3 Norte 18 Sudeste 0 -- -- 88
2020-11-22 07:00:00 4.1 5 Nordeste 10 Este 0 -- -- 94
2020-11-22 06:00:00 4.8 3 Noroeste 6 Noroeste 0 -- -- 92
2020-11-22 05:00:00 5.3 3 Noroeste 5 Norte 0 -- -- 92
2020-11-22 04:00:00 5 3 Noroeste 4 Este 0 -- -- 92
2020-11-22 03:00:00 5.9 3 Este 6 Este 0 -- -- 88
2020-11-22 02:00:00 6.4 3 Norte 8 Nordeste 0 -- -- 89
2020-11-22 01:00:00 5.8 4 Nordeste 6 Nordeste 0 -- -- 90
2020-11-22 00:00:00 6.8 0 Calma 8 Oeste 0 -- -- 83
2020-11-21 23:00:00 7.5 5 Noroeste 6 Oeste 0 -- -- 82
2020-11-21 22:00:00 7.5 0 Calma 7 Este 0 -- -- 83
2020-11-21 21:00:00 8.4 3 Este 7 Sudeste 0 -- -- 79
2020-11-21 20:00:00 9.8 0 Calma 9 Sudeste 0 -- -- 73
2020-11-21 19:00:00 10.9 4 Este 9 Sudeste 0 -- -- 66
2020-11-21 18:00:00 15.4 2 Sudeste 10 Sudeste 0 -- -- 55
2020-11-21 17:00:00 17.9 6 Sudeste 12 Sur 0 -- -- 41
2020-11-21 16:00:00 18.6 8 Sudeste 14 Sudeste 0 -- -- 38
2020-11-21 15:00:00 19 6 Sudeste 17 Sur 0 -- -- 37
2020-11-21 14:00:00 18.2 9 Sudeste 17 Sudeste 0 -- -- 43
2020-11-21 13:00:00 17.1 10 Este 17 Este 0 -- -- 46
2020-11-21 12:00:00 15.6 6 Este 13 Este 0 -- -- 51
2020-11-21 11:00:00 12.8 7 Sudeste 12 Sudeste 0 -- -- 60
2020-11-21 10:00:00 11.7 3 Este 10 Nordeste 0 -- -- 56
2020-11-21 09:00:00 8.5 6 Nordeste 12 Norte 0 -- -- 69
2020-11-21 08:00:00 8.1 6 Norte 13 Norte 0 -- -- 69
2020-11-21 07:00:00 8.3 6 Norte 13 Norte 0 -- -- 69
2020-11-21 06:00:00 7.6 4 Norte 12 Nordeste 0 -- -- 74
2020-11-21 05:00:00 6.5 0 Calma 7 Este 0 -- -- 81
2020-11-21 04:00:00 7.5 4 Nordeste 9 Nordeste 0 -- -- 75
2020-11-21 03:00:00 10.1 5 Nordeste 16 Nordeste 0 -- -- 62
2020-11-21 02:00:00 10.3 4 Nordeste 15 Norte 0 -- -- 61
2020-11-21 01:00:00 12.1 8 Norte 16 Norte 0 -- -- 54
2020-11-21 00:00:00 12 4 Nordeste 15 Norte 0 -- -- 53
2020-11-20 23:00:00 12.6 8 Norte 22 Nordeste 0 -- -- 50
2020-11-20 22:00:00 13.1 11 Norte 20 Nordeste 0 -- -- 51
2020-11-20 21:00:00 13.4 8 Norte 19 Norte 0 -- -- 54
2020-11-20 20:00:00 13.3 6 Norte 14 Norte 0 -- -- 54
2020-11-20 19:00:00 14.7 5 Nordeste 13 Nordeste 0 -- -- 51
2020-11-20 18:00:00 17.4 2 Este 10 Sudeste 0 -- -- 66
2020-11-20 17:00:00 20.2 6 Sudeste 18 Nordeste 0 -- -- 49
2020-11-20 16:00:00 20.9 8 Este 23 Este 0 -- -- 39
2020-11-20 15:00:00 20.2 12 Nordeste 22 Nordeste 0 -- -- 40
2020-11-20 14:00:00 19.9 8 Nordeste 22 Este 0 -- -- 41
2020-11-20 13:00:00 18.8 11 Este 19 Nordeste 0 -- -- 40
2020-11-20 12:00:00 17.7 10 Nordeste 25 Nordeste 0 -- -- 44
2020-11-20 11:00:00 15.9 11 Nordeste 28 Nordeste 0 -- -- 49
2020-11-20 10:00:00 14.3 13 Nordeste 28 Nordeste 0 -- -- 54
2020-11-20 09:00:00 12.7 8 Nordeste 22 Nordeste 0 -- -- 61
2020-11-20 08:00:00 12.8 11 Nordeste 22 Nordeste 0 -- -- 67
2020-11-20 07:00:00 12.5 10 Nordeste 22 Nordeste 0 -- -- 68
2020-11-20 06:00:00 12.5 9 Nordeste 17 Nordeste 0 -- -- 77
2020-11-20 05:00:00 12.6 5 Nordeste 14 Nordeste 0 -- -- 79
2020-11-20 04:00:00 12.3 5 Norte 12 Este 0 -- -- 83
2020-11-20 03:00:00 13.6 5 Este 13 Nordeste 0 -- -- 80
2020-11-20 02:00:00 14.7 6 Norte 19 Nordeste 0 -- -- 76
2020-11-20 01:00:00 15.7 9 Norte 19 Norte 0 -- -- 73
2020-11-20 00:00:00 15.3 7 Norte -- -- 0 -- -- 75
2020-11-19 23:00:00 16.6 13 Norte 24 Norte 0 -- -- 68
2020-11-19 22:00:00 16.1 8 Norte 19 Norte 0 -- -- 71
2020-11-19 21:00:00 15.6 4 Sudeste 19 Norte 0 -- -- 76
2020-11-19 20:00:00 14.9 7 Norte 17 Norte 0 -- -- 80
2020-11-19 19:00:00 15.9 3 Sudeste 5 Sudeste 0 -- -- 79
2020-11-19 18:00:00 18.7 0 Calma 8 Sudeste 0 -- -- 75
2020-11-19 17:00:00 21.8 5 Sudeste 10 Sudeste 0 -- -- 62
2020-11-19 16:00:00 22.6 6 Sur 15 Sur 0 -- -- 58
2020-11-19 15:00:00 22.2 7 Sudeste 14 Sudeste 0 -- -- 62
2020-11-19 14:00:00 23.1 8 Sudeste 20 Nordeste 0 -- -- 60
2020-11-19 13:00:00 21 8 Este 31 Nordeste 0 -- -- 59
2020-11-19 12:00:00 17.2 9 Este 18 Este 0.2 -- -- 77
2020-11-19 11:00:00 13.5 8 Sudeste 12 Sudeste 0 -- -- 93
2020-11-19 10:00:00 11.3 0 Calma 5 Oeste 0 -- -- 100
2020-11-19 09:00:00 8.1 2 Noroeste 5 Noroeste 0 -- -- 100
2020-11-19 08:00:00 7.9 3 Noroeste 6 Sudeste 0 -- -- 99
2020-11-19 07:00:00 8 0 Calma 5 Oeste 0 -- -- 99
2020-11-19 06:00:00 7.9 0 Calma 4 Oeste 0 -- -- 99
2020-11-19 05:00:00 8.7 0 Calma 3 Oeste 0 -- -- 99
2020-11-19 04:00:00 9.4 2 Norte 3 Noroeste 0 -- -- 99
2020-11-19 03:00:00 9.2 0 Calma 4 Este 0 -- -- 99
2020-11-19 02:00:00 9.5 0 Calma 5 Este 0 -- -- 99
2020-11-19 01:00:00 9.9 0 Calma 6 Este 0 -- -- 98
2020-11-19 00:00:00 9.3 2 Sudeste 4 Este 0 -- -- 97
2020-11-18 23:00:00 9.8 0 Calma 4 Nordeste 0 -- -- 97
2020-11-18 22:00:00 10.6 0 Calma 5 Este 0 -- -- 96
2020-11-18 21:00:00 11.1 2 Nordeste 7 Nordeste 0 -- -- 96
2020-11-18 20:00:00 11.3 0 Calma 3 Nordeste 0 -- -- 94
2020-11-18 19:00:00 12.3 2 Noroeste 4 Sur 0 -- -- 93
2020-11-18 18:00:00 13.9 4 Sur 10 Sudeste 0 -- -- 89
2020-11-18 17:00:00 15.7 8 Sudeste 11 Sudeste 0 -- -- 83
2020-11-18 16:00:00 17.4 5 Sur 18 Sudeste 0 -- -- 79
2020-11-18 15:00:00 17.5 7 Sudeste 13 Sudeste 0 -- -- 78
2020-11-18 14:00:00 17 6 Sur 15 Sudeste 0 -- -- 80
2020-11-18 13:00:00 16.6 8 Sudeste 16 Sudeste 0 -- -- 81
2020-11-18 12:00:00 14.8 6 Sudeste 13 Sudeste 0 -- -- 88
2020-11-18 11:00:00 13 7 Este 16 Sudeste 0 -- -- 94
2020-11-18 10:00:00 11.4 5 Este 12 Este 0 -- -- 100
2020-11-18 09:00:00 10.2 4 Este 7 Este 0 -- -- 99
2020-11-18 08:00:00 10 2 Nordeste 6 Este 0 -- -- 99
2020-11-18 07:00:00 9.6 3 Este 9 Sudeste 0 -- -- 99
2020-11-18 06:00:00 8.8 2 Sudeste 6 Este 0 -- -- 99
2020-11-18 05:00:00 8.3 3 Nordeste 6 Nordeste 0 -- -- 98
2020-11-18 04:00:00 8.9 2 Norte 4 Este 0 -- -- 98
2020-11-18 03:00:00 9.3 3 Este 5 Este 0 -- -- 98
2020-11-18 02:00:00 9.6 3 Noroeste 5 Oeste 0 -- -- 97
2020-11-18 01:00:00 10.1 3 Noroeste 6 Oeste 0 -- -- 97
2020-11-18 00:00:00 10.9 3 Oeste 5 Nordeste 0 -- -- 96
2020-11-17 23:00:00 12.2 5 Nordeste 11 Nordeste 0 -- -- 94
2020-11-17 22:00:00 11.5 2 Noroeste 6 Nordeste 0 -- -- 96
2020-11-17 21:00:00 12.4 5 Nordeste 9 Nordeste 0 -- -- 97
2020-11-17 20:00:00 12.1 3 Norte 4 Norte 0 -- -- 95
2020-11-17 19:00:00 13.4 2 Noroeste 3 Oeste 0 -- -- 91
2020-11-17 18:00:00 16.6 0 Calma 3 Sur 0 -- -- 85
2020-11-17 17:00:00 18.3 3 Sur 8 Sur 0 -- -- 78
2020-11-17 16:00:00 17.9 4 Sur 9 Sur 0 -- -- 80
2020-11-17 15:00:00 17.6 4 Sudeste 10 Sur 0 -- -- 82
2020-11-17 14:00:00 16.7 5 Sudeste 13 Sur 0 -- -- 84
2020-11-17 13:00:00 15 5 Sur 11 Sur 0 -- -- 90
2020-11-17 12:00:00 12.8 3 Sur 8 Este 0 -- -- 99
2020-11-17 11:00:00 12.4 3 Este 8 Este 0 -- -- 99
2020-11-17 10:00:00 10.9 4 Nordeste 10 Este 0 -- -- 99
2020-11-17 09:00:00 9.1 2 Sudeste 8 Nordeste 0 -- -- 99
2020-11-17 08:00:00 7.9 0 Calma 4 Este 0 -- -- 99
2020-11-17 07:00:00 7.8 0 Calma 4 Oeste 0 -- -- 98
2020-11-17 06:00:00 8.4 2 Norte 4 Oeste 0 -- -- 98
2020-11-17 05:00:00 8.5 0 Calma 4 Sudeste 0 -- -- 97
2020-11-17 04:00:00 9.6 0 Calma 9 Sudeste 0 -- -- 98
2020-11-17 03:00:00 10.6 4 Norte 7 Norte 0 -- -- 98
2020-11-17 02:00:00 10.8 0 Calma 8 Norte 0 -- -- 98
2020-11-17 01:00:00 11.4 4 Norte 7 Norte 0 -- -- 98
2020-11-17 00:00:00 11.3 5 Norte 8 Norte 0 -- -- 97
2020-11-16 23:00:00 11.6 0 Calma 6 Norte 0 -- -- 96
2020-11-16 22:00:00 12.8 3 Norte 8 Noroeste 0 -- -- 94
2020-11-16 21:00:00 14.3 6 Noroeste 10 Noroeste 0 -- -- 94
2020-11-16 20:00:00 14.1 5 Noroeste 8 Noroeste 0 -- -- 93
2020-11-16 19:00:00 15.1 5 Oeste 9 Noroeste 0 -- -- 89
2020-11-16 18:00:00 17.8 2 Oeste 8 Sudoeste 0 -- -- 79
2020-11-16 17:00:00 19.7 4 Sudoeste 12 Sudoeste 0 -- -- 69
2020-11-16 16:00:00 19.7 8 Sudoeste 16 Sur 0 -- -- 69
2020-11-16 15:00:00 19.7 9 Sur 15 Sur 0 -- -- 74
2020-11-16 14:00:00 19.4 5 Sudoeste 12 Sudeste 0 -- -- 75
2020-11-16 13:00:00 17.1 4 Oeste 9 Oeste 0 -- -- 86
2020-11-16 12:00:00 14.6 3 Sudoeste 9 Sur 0 -- -- 100
2020-11-16 11:00:00 13.6 2 Sur 7 Sudeste 0 -- -- 100
2020-11-16 10:00:00 12.9 0 Calma 4 Este 0 -- -- 100
2020-11-16 09:00:00 12.4 0 Calma 4 Noroeste 0.2 -- -- 100
2020-11-16 08:00:00 13 2 Oeste 4 Sudoeste 0 -- -- 100
2020-11-16 07:00:00 12.5 0 Calma 5 Nordeste 0 -- -- 99
2020-11-16 06:00:00 12.5 0 Calma 6 Noroeste 0 -- -- 99
2020-11-16 05:00:00 12.7 4 Noroeste 7 Oeste 0 -- -- 99
2020-11-16 04:00:00 12.3 0 Calma 8 Oeste 0 -- -- 99
2020-11-16 03:00:00 12.5 3 Oeste 6 Oeste 0 -- -- 99
2020-11-16 02:00:00 12.5 0 Calma 5 Oeste 0 -- -- 98
2020-11-16 01:00:00 13.6 4 Oeste 5 Oeste 0 -- -- 98
2020-11-16 00:00:00 14.2 0 Calma 4 Norte 0 -- -- 96
2020-11-15 23:00:00 15.6 2 Oeste 5 Oeste 0 -- -- 97
2020-11-15 22:00:00 16.2 2 Noroeste 5 Sudeste 0 -- -- 96
2020-11-15 21:00:00 16.4 0 Calma 5 Este 0 -- -- 95
2020-11-15 20:00:00 16.6 2 Este 6 Sudeste 0 -- -- 94
2020-11-15 19:00:00 16.7 5 Sudeste 9 Sudeste 0 -- -- 92
2020-11-15 18:00:00 17.2 3 Noroeste 10 Oeste 0 -- -- 90
2020-11-15 17:00:00 18.1 6 Oeste 14 Oeste 0 -- -- 85
2020-11-15 16:00:00 18.3 7 Noroeste 18 Sudoeste 0 -- -- 85
2020-11-15 15:00:00 19.5 9 Sur 20 Sur 0 -- -- 80
2020-11-15 14:00:00 18.1 7 Sur 18 Sur 0 -- -- 88
2020-11-15 13:00:00 17.3 9 Sur 21 Sudoeste 0 -- -- 91
2020-11-15 12:00:00 16.7 10 Sur 18 Sur 0 -- -- 96
2020-11-15 11:00:00 15.7 5 Sudeste 9 Sur 0 -- -- 99
2020-11-15 10:00:00 15.1 4 Sudeste 8 Sudeste 0 -- -- 99
2020-11-15 09:00:00 14.9 4 Sur 10 Sur 0 -- -- 99
2020-11-15 08:00:00 14.4 8 Sur 12 Sudeste 0 -- -- 99
2020-11-15 07:00:00 14.1 6 Sur 14 Sur 0.2 -- -- 99
2020-11-15 06:00:00 14 9 Sur 14 Sur 0.6 -- -- 99
2020-11-15 05:00:00 13.7 5 Sur 14 Sudeste 0.6 -- -- 99
2020-11-15 04:00:00 13.5 9 Sudeste 14 Sudeste 0.8 -- -- 99
2020-11-15 03:00:00 13.6 6 Sur 9 Sur 0.4 -- -- 99
2020-11-15 02:00:00 13.4 2 Nordeste 5 Este 0 -- -- 98
2020-11-15 01:00:00 13.3 2 Este 7 Este 0.6 -- -- 98
2020-11-15 00:00:00 13.1 2 Este 5 Este 0 -- -- 98
2020-11-14 23:00:00 13 2 Nordeste 5 Este 0 -- -- 98
2020-11-14 22:00:00 13 2 Sudeste 6 Este 0.2 -- -- 98
2020-11-14 21:00:00 12.4 3 Norte 4 Nordeste 0 -- -- 97
2020-11-14 20:00:00 12.7 0 Calma 8 Oeste 0 -- -- 96
2020-11-14 19:00:00 13.6 3 Oeste 8 Sudeste 0 -- -- 97
2020-11-14 18:00:00 13.7 5 Sudeste 13 Sur 0 -- -- 97
2020-11-14 17:00:00 14.1 3 Sudeste 8 Sudeste 0 -- -- 97
2020-11-14 16:00:00 13.7 5 Sudeste 9 Sudeste 0.2 -- -- 97
2020-11-14 15:00:00 13.2 4 Sudeste 11 Sudeste 0.4 -- -- 97
2020-11-14 14:00:00 13.2 5 Sudeste 10 Sudeste 0.4 -- -- 96
2020-11-14 13:00:00 13.2 3 Sudeste 6 Sudeste 0.4 -- -- 95
2020-11-14 12:00:00 13.1 0 Calma 5 Sudoeste 0.8 -- -- 93
2020-11-14 11:00:00 12.8 3 Sudeste 10 Sudeste 0.4 -- -- 92
2020-11-14 10:00:00 12.7 3 Sudeste 9 Sur 0.2 -- -- 92
2020-11-14 09:00:00 12.7 4 Sur 10 Sudeste 0 -- -- 91
2020-11-14 08:00:00 12.3 4 Este 13 Sudeste 0 -- -- 90
2020-11-14 07:00:00 12.5 5 Sudeste 12 Sur 0.2 -- -- 90
2020-11-14 06:00:00 13.3 6 Sudeste 11 Sudeste 0 -- -- 84
2020-11-14 05:00:00 13.5 2 Sur 8 Sudeste 0 -- -- 81
2020-11-14 04:00:00 13.2 0 Calma 5 Sudeste 0 -- -- 83
2020-11-14 03:00:00 13.1 0 Calma 9 Este 0 -- -- 85
2020-11-14 02:00:00 13.6 5 Sudeste 12 Sudeste 0 -- -- 82
2020-11-14 01:00:00 13.4 5 Este 9 Sudeste 0 -- -- 82
2020-11-14 00:00:00 12.7 4 Este 8 Este 0 -- -- 85
2020-11-13 23:00:00 12.9 3 Sudeste 6 Sudeste 0 -- -- 86
2020-11-13 22:00:00 13.2 2 Nordeste 6 Este 0 -- -- 86
2020-11-13 21:00:00 13.1 0 Calma 7 Sudeste 0 -- -- 85
2020-11-13 20:00:00 13.1 0 Calma 5 Sudeste 0 -- -- 84
2020-11-13 19:00:00 13.2 0 Calma 4 Sudeste 0 -- -- 85
2020-11-13 18:00:00 14.4 4 Sudeste 13 Sudeste 0 -- -- 77
2020-11-13 17:00:00 15.2 5 Sudeste 14 Sur 0 -- -- 71
2020-11-13 16:00:00 15.9 10 Sudeste 18 Sudeste 0 -- -- 68
2020-11-13 15:00:00 16.4 12 Sudeste 21 Sudeste 0 -- -- 64
2020-11-13 14:00:00 15.6 11 Sudeste 19 Sudeste 0 -- -- 69
2020-11-13 13:00:00 14.5 9 Sudeste 18 Sudeste 0 -- -- 74
2020-11-13 12:00:00 14 6 Este 13 Este 0 -- -- 77
2020-11-13 11:00:00 12.8 4 Sudeste 9 Sudeste 0 -- -- 82
2020-11-13 10:00:00 11.7 0 Calma 8 Nordeste 0 -- -- 88
2020-11-13 09:00:00 10.3 2 Nordeste 6 Nordeste 0 -- -- 92
2020-11-13 08:00:00 10.4 4 Nordeste 10 Nordeste 0 -- -- 89
2020-11-13 07:00:00 10.3 4 Nordeste 9 Nordeste 0 -- -- 91
2020-11-13 06:00:00 10.1 5 Nordeste 9 Nordeste 0 -- -- 92
2020-11-13 05:00:00 9.3 4 Nordeste 6 Nordeste 0 -- -- 94
2020-11-13 04:00:00 10 0 Calma 8 Este 0 -- -- 91
2020-11-13 03:00:00 9.5 3 Nordeste 8 Este 0 -- -- 92
2020-11-13 02:00:00 10.2 4 Nordeste 6 Nordeste 0 -- -- 92
2020-11-13 01:00:00 11.6 4 Nordeste 8 Nordeste 0 -- -- 88
2020-11-13 00:00:00 12 4 Norte 10 Norte 0 -- -- 88
2020-11-12 23:00:00 10.6 4 Norte 6 Norte 0 -- -- 94
2020-11-12 22:00:00 11.4 0 Calma 9 Este 0 -- -- 91
2020-11-12 21:00:00 11.4 0 Calma 8 Este 0 -- -- 89
2020-11-12 20:00:00 10.6 4 Este 8 Este 0 -- -- 92
2020-11-12 19:00:00 11.9 3 Este 5 Sudeste 0 -- -- 88
2020-11-12 18:00:00 15.7 3 Este 13 Este 0 -- -- 72
2020-11-12 17:00:00 16.8 8 Sudeste 16 Sudeste 0 -- -- 68
2020-11-12 16:00:00 17 7 Sudeste 16 Sudeste 0 -- -- 69
2020-11-12 15:00:00 16.4 11 Sudeste 18 Sudeste 0 -- -- 70
2020-11-12 14:00:00 15.5 5 Este 12 Este 0 -- -- 74
2020-11-12 13:00:00 14.8 7 Este 15 Este 0 -- -- 77
2020-11-12 12:00:00 14 8 Este 17 Este 0 -- -- 81
2020-11-12 11:00:00 12.5 4 Nordeste 6 Nordeste 0 -- -- 88
2020-11-12 10:00:00 11.1 2 Nordeste 5 Nordeste 0 -- -- 94
2020-11-12 09:00:00 9.6 2 Norte 8 Este 0 -- -- 96
2020-11-12 08:00:00 9.7 3 Este 8 Este 0 -- -- 95
2020-11-12 07:00:00 10 0 Calma 8 Este 0 -- -- 93
2020-11-12 06:00:00 10.6 4 Nordeste 8 Nordeste 0 -- -- 93
2020-11-12 05:00:00 10.2 5 Nordeste 7 Nordeste 0 -- -- 95
2020-11-12 04:00:00 10.7 0 Calma 10 Este 0 -- -- 91
2020-11-12 03:00:00 10.9 5 Nordeste 11 Nordeste 0 -- -- 93
2020-11-12 02:00:00 10.7 3 Noroeste 6 Sudeste 0 -- -- 94
2020-11-12 01:00:00 10.9 2 Sudeste 6 Nordeste 0 -- -- 93
2020-11-12 00:00:00 11.7 2 Norte 9 Nordeste 0 -- -- 90
2020-11-11 23:00:00 11.6 6 Nordeste 8 Nordeste 0 -- -- 92
2020-11-11 22:00:00 12.2 3 Este 9 Este 0 -- -- 91
2020-11-11 21:00:00 12.4 3 Nordeste 6 Nordeste 0 -- -- 90
2020-11-11 20:00:00 12.4 4 Este 8 Nordeste 0 -- -- 90
2020-11-11 19:00:00 13 0 Calma 4 Oeste 0 -- -- 90
2020-11-11 18:00:00 15.5 0 Calma 4 Este 0 -- -- 80
2020-11-11 17:00:00 17.9 3 Este 9 Sudeste 0 -- -- 65
2020-11-11 16:00:00 17.8 6 Sudeste 14 Sudeste 0 -- -- 64
2020-11-11 15:00:00 17.3 8 Sudeste 13 Sudeste 0 -- -- 66
2020-11-11 14:00:00 17.6 8 Sur 14 Sudeste 0 -- -- 66
2020-11-11 13:00:00 17.5 8 Sudeste 19 Sudeste 0 -- -- 67
2020-11-11 12:00:00 15.8 13 Sudeste 23 Sudeste 0 -- -- 74
2020-11-11 11:00:00 13.5 9 Este 17 Este 0 -- -- 82
2020-11-11 10:00:00 11 7 Este 14 Este 0 -- -- 93
2020-11-11 09:00:00 7.6 3 Sudeste 6 Este 0 -- -- 98
2020-11-11 08:00:00 7.2 0 Calma 7 Nordeste 0 -- -- 97
2020-11-11 07:00:00 7.9 4 Este 12 Este 0 -- -- 98
2020-11-11 06:00:00 7.5 2 Norte 4 Norte 0 -- -- 97
2020-11-11 05:00:00 8.3 2 Noroeste 8 Nordeste 0 -- -- 96
2020-11-11 04:00:00 9 5 Nordeste 9 Nordeste 0 -- -- 95
2020-11-11 03:00:00 9.8 5 Nordeste 8 Nordeste 0 -- -- 94
2020-11-11 02:00:00 10.2 4 Norte 10 Norte 0 -- -- 93
2020-11-11 01:00:00 10.2 4 Nordeste 9 Norte 0 -- -- 96
2020-11-11 00:00:00 9.9 4 Norte 8 Norte 0 -- -- 96
2020-11-10 23:00:00 9.6 3 Norte 6 Norte 0 -- -- 96
2020-11-10 22:00:00 10 2 Norte 5 Oeste 0 -- -- 95
2020-11-10 21:00:00 10.9 4 Noroeste 5 Oeste 0 -- -- 94
2020-11-10 20:00:00 11.6 3 Noroeste 4 Oeste 0 -- -- 93
2020-11-10 19:00:00 12.9 3 Noroeste 4 Noroeste 0 -- -- 90
2020-11-10 18:00:00 16.4 0 Calma 6 Sur 0 -- -- 80
2020-11-10 17:00:00 18.4 2 Sur 10 Sur 0 -- -- 66
2020-11-10 16:00:00 18.6 6 Sur 15 Sudeste 0 -- -- 64
2020-11-10 15:00:00 18 6 Sur 14 Sudeste 0 -- -- 68
2020-11-10 14:00:00 17 9 Sudeste 15 Sur 0 -- -- 72
2020-11-10 13:00:00 15.5 7 Sudeste 13 Sudeste 0 -- -- 78
2020-11-10 12:00:00 14.3 6 Sudeste 11 Sudeste 0 -- -- 82
2020-11-10 11:00:00 13.1 5 Sudeste 9 Nordeste 0 -- -- 89
2020-11-10 10:00:00 9.8 2 Norte 4 Norte 0 -- -- 99
2020-11-10 09:00:00 7.2 0 Calma 4 Oeste 0 -- -- 99
2020-11-10 08:00:00 6.4 2 Noroeste 5 Noroeste 0 -- -- 98
2020-11-10 07:00:00 6.6 3 Noroeste 4 Noroeste 0.2 -- -- 98
2020-11-10 06:00:00 7.1 0 Calma 6 Nordeste 0 -- -- 98
2020-11-10 05:00:00 7.7 3 Oeste 5 Oeste 0 -- -- 98
2020-11-10 04:00:00 7.7 4 Noroeste 5 Oeste 0 -- -- 98
2020-11-10 03:00:00 8.4 2 Norte 6 Oeste 0 -- -- 97
2020-11-10 02:00:00 9.3 5 Noroeste 8 Oeste 0 -- -- 98
2020-11-10 01:00:00 9.3 0 Calma 6 Oeste 0 -- -- 97
2020-11-10 00:00:00 9.2 3 Noroeste 4 Noroeste 0 -- -- 97
2020-11-09 23:00:00 10.1 2 Noroeste 4 Nordeste 0 -- -- 96
2020-11-09 22:00:00 11.1 0 Calma 8 Noroeste 0 -- -- 95
2020-11-09 21:00:00 11.5 2 Noroeste 8 Noroeste 0 -- -- 94
2020-11-09 20:00:00 12.1 3 Noroeste 10 Noroeste 0 -- -- 92
2020-11-09 19:00:00 12.9 4 Noroeste 6 Noroeste 0 -- -- 92
2020-11-09 18:00:00 14.7 3 Noroeste 8 Oeste 0 -- -- 85
2020-11-09 17:00:00 16.4 3 Sudoeste 11 Sudoeste 0 -- -- 74
2020-11-09 16:00:00 15.8 8 Oeste 16 Oeste 0 -- -- 78
2020-11-09 15:00:00 16.4 9 Sudoeste 16 Sudoeste 0 -- -- 73
2020-11-09 14:00:00 17.3 7 Oeste 16 Sur 0 -- -- 68
2020-11-09 13:00:00 15.9 8 Sur 14 Sur 0 -- -- 79
2020-11-09 12:00:00 14.4 5 Oeste 10 Sudoeste 0 -- -- 88
2020-11-09 11:00:00 13.5 4 Sudoeste 9 Sur 0 -- -- 93
2020-11-09 10:00:00 12.7 4 Sur 7 Sur 0 -- -- 99
2020-11-09 09:00:00 12.1 0 Calma 7 Este 0 -- -- 99
2020-11-09 08:00:00 12.1 3 Sudeste 8 Sur 0 -- -- 99
2020-11-09 07:00:00 12.2 3 Sur 8 Sur 0 -- -- 98
2020-11-09 06:00:00 12.3 3 Sudeste 6 Sudeste 0 -- -- 98
2020-11-09 05:00:00 12.4 3 Sudeste 9 Sur 0 -- -- 98
2020-11-09 04:00:00 12.1 3 Sudeste 5 Sudeste 0 -- -- 98
2020-11-09 03:00:00 12.8 3 Sudeste 11 Sur 0 -- -- 98
2020-11-09 02:00:00 13 5 Sudoeste 13 Sudeste 1 -- -- 98
2020-11-09 01:00:00 13 4 Sudeste 9 Sudeste 0.6 -- -- 98
2020-11-09 00:00:00 13 4 Sudeste 12 Sudeste 0 -- -- 98
2020-11-08 23:00:00 13 5 Sudeste 16 Sudeste 0 -- -- 98
2020-11-08 22:00:00 13.1 7 Sudeste 22 Sudeste 2.6 -- -- 98
2020-11-08 21:00:00 13 8 Sur 15 Sur 1 -- -- 98
2020-11-08 20:00:00 13 10 Sur 17 Sudeste 1 -- -- 98
2020-11-08 19:00:00 13 10 Sur 22 Sur 2.6 -- -- 98
2020-11-08 18:00:00 13.3 6 Sudeste 14 Sudeste 2 -- -- 98
2020-11-08 17:00:00 13.2 9 Sudeste 15 Sudeste 7.4 -- -- 98
2020-11-08 16:00:00 13.3 7 Sudeste 18 Sudeste 2.2 -- -- 97
2020-11-08 15:00:00 13.3 9 Sudeste 30 Sudeste 2.6 -- -- 96
2020-11-08 14:00:00 13.7 13 Sudeste 31 Sudeste 0.2 -- -- 93
2020-11-08 13:00:00 14 19 Sudeste 32 Sudeste 0 -- -- 90
2020-11-08 12:00:00 13.5 16 Sudeste 28 Sudeste 0 -- -- 92
2020-11-08 11:00:00 13.4 11 Sudeste 23 Sudeste 0 -- -- 91
2020-11-08 10:00:00 12.6 10 Sudeste 24 Sudeste 0.2 -- -- 93
2020-11-08 09:00:00 12.4 13 Sudeste 23 Sudeste 0.2 -- -- 92
2020-11-08 08:00:00 12.2 8 Sudeste 20 Sudeste 0.2 -- -- 93
2020-11-08 07:00:00 12.6 8 Sudeste 22 Sudeste 0 -- -- 92
2020-11-08 06:00:00 13.1 10 Sudeste 18 Sudeste 0 -- -- 88
2020-11-08 05:00:00 12.7 5 Sudeste 10 Sudeste 0 -- -- 90
2020-11-08 04:00:00 12.7 4 Sudeste 6 Sudeste 0 -- -- 90
2020-11-08 03:00:00 12.8 4 Este 9 Sudeste 0 -- -- 89
2020-11-08 02:00:00 13.2 4 Sudeste 13 Sur 0 -- -- 86
2020-11-08 01:00:00 13.6 8 Sur 19 Sur 0 -- -- 83
2020-11-08 00:00:00 13.6 6 Sudeste 13 Sudeste 0 -- -- 85
2020-11-07 23:00:00 13.5 3 Sudeste 8 Sudeste 0 -- -- 85
2020-11-07 22:00:00 13.9 5 Sudeste 8 Sudeste 0 -- -- 83
2020-11-07 21:00:00 14 3 Sudeste 7 Sudeste 0 -- -- 84
2020-11-07 20:00:00 14.1 4 Sudeste 7 Sudeste 0 -- -- 84
2020-11-07 19:00:00 14.8 4 Sudeste 12 Sur 0 -- -- 80
2020-11-07 18:00:00 15.5 7 Sur 21 Sur 0 -- -- 76
2020-11-07 17:00:00 15.8 5 Sudeste 13 Sudeste 0 -- -- 80
2020-11-07 16:00:00 15.7 6 Sudeste 13 Oeste 0 -- -- 79
2020-11-07 15:00:00 14.6 7 Oeste 28 Oeste 0 -- -- 85
2020-11-07 14:00:00 15.7 8 Sudoeste 26 Oeste 0 -- -- 75
2020-11-07 13:00:00 15.7 10 Oeste 23 Sudoeste 0 -- -- 77
2020-11-07 12:00:00 13.6 12 Oeste 21 Oeste 0 -- -- 89
2020-11-07 11:00:00 13.2 6 Sur 18 Sur 0.2 -- -- 95
2020-11-07 10:00:00 12.6 6 Sudoeste 15 Sur 0.4 -- -- 96
2020-11-07 09:00:00 12.3 4 Sur 10 Sur 0 -- -- 97
2020-11-07 08:00:00 12.2 3 Sur 14 Sudoeste 0.6 -- -- 97
2020-11-07 07:00:00 12.4 8 Sur 17 Sur 2.6 -- -- 97
2020-11-07 06:00:00 12.7 7 Sur 14 Sur 0.8 -- -- 98
2020-11-07 05:00:00 12.5 3 Sudeste 8 Nordeste 0.2 -- -- 98
2020-11-07 04:00:00 12.1 0 Calma 6 Nordeste 0 -- -- 97
2020-11-07 03:00:00 12.1 5 Este 10 Este 1 -- -- 97
2020-11-07 02:00:00 12.4 0 Calma 10 Sur 0.6 -- -- 96
2020-11-07 01:00:00 12.2 3 Oeste 10 Sudeste 3 -- -- 97
2020-11-07 00:00:00 12.3 6 Sudeste 13 Sudeste 2 -- -- 96
2020-11-06 23:00:00 12.4 5 Sudeste 10 Nordeste 3.2 -- -- 95
2020-11-06 22:00:00 12.4 6 Este 13 Sudeste 1.4 -- -- 95
2020-11-06 21:00:00 12.6 6 Sudoeste 20 Oeste 1.4 -- -- 93
2020-11-06 20:00:00 12.7 5 Oeste 11 Sur 0.8 -- -- 91
2020-11-06 19:00:00 12.8 3 Sur 79 Sudoeste 2.6 -- -- 90
2020-11-06 18:00:00 17.8 23 Sudeste 42 Este 0 -- -- 78
2020-11-06 17:00:00 18.1 21 Sudeste 40 Este 0 -- -- 74
2020-11-06 16:00:00 18.4 26 Sudeste 46 Este 0 -- -- 72
2020-11-06 15:00:00 18.2 19 Sudeste 45 Sudeste 0 -- -- 74
2020-11-06 14:00:00 18.1 23 Sudeste 53 Sudeste 0 -- -- 76
2020-11-06 13:00:00 17.2 29 Sudeste 63 Sudeste 0 -- -- 78
2020-11-06 12:00:00 16.7 26 Sudeste 58 Este 0 -- -- 79
2020-11-06 11:00:00 15.4 32 Sudeste 67 Este 0.2 -- -- 84
2020-11-06 10:00:00 15 22 Este 48 Sudeste 0 -- -- 83
2020-11-06 09:00:00 13.8 17 Este 31 Sudeste 0 -- -- 87
2020-11-06 08:00:00 13.7 7 Este 19 Sudeste 0 -- -- 86
2020-11-06 07:00:00 14.5 13 Sudeste 52 Sudeste 0.2 -- -- 82
2020-11-06 06:00:00 14.7 21 Sudeste 45 Sudeste 0 -- -- 81
2020-11-06 05:00:00 13.3 8 Este 17 Este 0 -- -- 90
2020-11-06 04:00:00 12.6 3 Sudeste 13 Sudeste 0 -- -- 94
2020-11-06 03:00:00 13.1 6 Sur 23 Sur 2.2 -- -- 92
2020-11-06 02:00:00 13.7 20 Sur 33 Sudeste 2.2 -- -- 89
2020-11-06 01:00:00 13.5 9 Sudeste 27 Este 0 -- -- 85
2020-11-06 00:00:00 13.1 13 Este 35 Sudeste 0 -- -- 84
2020-11-05 23:00:00 12.3 8 Sudeste 23 Sudeste 0 -- -- 87
2020-11-05 22:00:00 12 13 Este 24 Este 0 -- -- 90
2020-11-05 21:00:00 11.9 13 Este 28 Este 0 -- -- 88
2020-11-05 20:00:00 11.2 4 Nordeste 11 Nordeste 0 -- -- 94
2020-11-05 19:00:00 11.6 5 Nordeste 21 Este 0 -- -- 94
2020-11-05 18:00:00 12.1 9 Este 21 Nordeste 2.2 -- -- 94
2020-11-05 17:00:00 12.6 5 Este 21 Sudeste 5 -- -- 94
2020-11-05 16:00:00 13 10 Este 27 Sudeste 4.4 -- -- 95
2020-11-05 15:00:00 13.2 17 Sudeste 37 Sudeste 1.8 -- -- 93
2020-11-05 14:00:00 14.4 19 Sudeste 45 Sudeste 0 -- -- 87
2020-11-05 13:00:00 15.1 25 Sudeste 47 Sudeste 0.2 -- -- 85
2020-11-05 12:00:00 13.8 23 Sudeste 49 Sudeste 0 -- -- 87
2020-11-05 11:00:00 13.1 25 Sudeste 59 Este 0.4 -- -- 89
2020-11-05 10:00:00 13.4 25 Sudeste 53 Sudeste 0.2 -- -- 85
2020-11-05 09:00:00 13.1 26 Sudeste 55 Este 0 -- -- 84
2020-11-05 08:00:00 13.2 28 Sudeste 53 Sudeste 0.2 -- -- 84
2020-11-05 07:00:00 12.8 18 Este 49 Este 0.2 -- -- 88
2020-11-05 06:00:00 12.9 20 Este 44 Este 0.2 -- -- 88
2020-11-05 05:00:00 12.4 18 Este 39 Este 0.8 -- -- 90
2020-11-05 04:00:00 12.7 19 Este 45 Este 0.4 -- -- 88
2020-11-05 03:00:00 12.1 13 Este 31 Este 0 -- -- 88
2020-11-05 02:00:00 12.1 16 Este 28 Este 0 -- -- 88
2020-11-05 01:00:00 11 5 Este 14 Este 1 -- -- 92
2020-11-05 00:00:00 10.9 5 Este 22 Este 0.4 -- -- 89
2020-11-04 23:00:00 10.8 3 Nordeste 17 Nordeste 0 -- -- 83
2020-11-04 22:00:00 10.7 9 Nordeste 18 Nordeste 0 -- -- 85
2020-11-04 21:00:00 10.1 8 Nordeste 22 Nordeste 0 -- -- 87
2020-11-04 20:00:00 9.8 10 Nordeste 23 Este 0.6 -- -- 89
2020-11-04 19:00:00 10.1 11 Nordeste 21 Nordeste 0 -- -- 84
2020-11-04 18:00:00 10.1 9 Nordeste 23 Nordeste 0.4 -- -- 86
2020-11-04 17:00:00 11.7 12 Nordeste 22 Este 0 -- -- 77
2020-11-04 16:00:00 11.8 10 Nordeste 21 Nordeste 0 -- -- 75
2020-11-04 15:00:00 12.2 7 Nordeste 22 Nordeste 0 -- -- 67
2020-11-04 14:00:00 13.2 12 Nordeste 24 Nordeste 0 -- -- 63
2020-11-04 13:00:00 11 15 Nordeste 31 Nordeste 0 -- -- 68
2020-11-04 12:00:00 11.4 14 Nordeste 36 Nordeste 0 -- -- 66
2020-11-04 11:00:00 10.8 19 Nordeste 37 Nordeste 0 -- -- 66
2020-11-04 10:00:00 10.6 13 Nordeste 33 Nordeste 0 -- -- 67
2020-11-04 09:00:00 9.8 14 Norte 39 Norte 0 -- -- 70
2020-11-04 08:00:00 9.8 15 Nordeste 38 Nordeste 0 -- -- 70
2020-11-04 07:00:00 10.4 15 Nordeste 37 Nordeste 0 -- -- 71
2020-11-04 06:00:00 10.6 15 Norte 30 Nordeste 0 -- -- 71
2020-11-04 05:00:00 10.9 10 Norte 27 Nordeste 0 -- -- 73
2020-11-04 04:00:00 10.9 9 Nordeste 24 Nordeste 0 -- -- 73
2020-11-04 03:00:00 12.2 12 Nordeste 24 Nordeste 0 -- -- 70
2020-11-04 02:00:00 12.9 10 Nordeste 28 Nordeste 0 -- -- 69
2020-11-04 01:00:00 12.9 11 Nordeste 21 Norte 0 -- -- 68
2020-11-04 00:00:00 13.5 11 Nordeste 25 Nordeste 0 -- -- 65
2020-11-03 23:00:00 14.5 12 Nordeste 32 Nordeste 0 -- -- 63
2020-11-03 22:00:00 15 10 Nordeste 30 Norte 0 -- -- 63
2020-11-03 21:00:00 15.6 15 Nordeste 36 Nordeste 0 -- -- 64
2020-11-03 20:00:00 15.8 17 Nordeste 40 Nordeste 0 -- -- 61
2020-11-03 19:00:00 15.9 17 Norte 40 Norte 0 -- -- 62
2020-11-03 18:00:00 16.5 17 Nordeste 34 Nordeste 0 -- -- 62
2020-11-03 17:00:00 17 17 Nordeste 40 Nordeste 0 -- -- 64
2020-11-03 16:00:00 17.8 21 Nordeste 36 Nordeste 0 -- -- 63
2020-11-03 15:00:00 17.3 17 Nordeste 35 Nordeste 0 -- -- 65
2020-11-03 14:00:00 17.9 18 Nordeste 37 Nordeste 0 -- -- 63
2020-11-03 13:00:00 18.3 15 Nordeste 35 Nordeste 0 -- -- 62
2020-11-03 12:00:00 17.3 15 Nordeste 39 Norte 0 -- -- 63
2020-11-03 11:00:00 15.9 17 Nordeste 32 Norte 0 -- -- 66
2020-11-03 10:00:00 14.7 15 Norte 37 Nordeste 0 -- -- 67
2020-11-03 09:00:00 13.7 12 Norte 28 Norte 0 -- -- 67
2020-11-03 08:00:00 12.9 4 Noroeste 8 Noroeste 0 -- -- 75
2020-11-03 07:00:00 14 3 Nordeste 14 Norte 0 -- -- 81
2020-11-03 06:00:00 15.2 4 Norte 15 Noroeste 0 -- -- 81
2020-11-03 05:00:00 15.3 6 Nordeste 13 Noroeste 0 -- -- 84
2020-11-03 04:00:00 14.7 2 Noroeste 6 Noroeste 0 -- -- 95
2020-11-03 03:00:00 14.6 0 Calma 9 Oeste 0 -- -- 95
2020-11-03 02:00:00 14.3 3 Noroeste 6 Noroeste 0 -- -- 96
2020-11-03 01:00:00 14.5 2 Sudeste 8 Noroeste 0 -- -- 96
2020-11-03 00:00:00 14.4 0 Calma 5 Oeste 0 -- -- 95
2020-11-02 23:00:00 14.3 3 Norte 5 Oeste 0 -- -- 95
2020-11-02 22:00:00 14.6 0 Calma 3 Sudeste 0 -- -- 93
2020-11-02 21:00:00 15.7 0 Calma 12 Noroeste 0 -- -- 87
2020-11-02 20:00:00 16.5 8 Noroeste 10 Noroeste 0 -- -- 87
2020-11-02 19:00:00 17 5 Noroeste 9 Noroeste 0 -- -- 87
2020-11-02 18:00:00 17.8 5 Noroeste 11 Oeste 0 -- -- 83
2020-11-02 17:00:00 18.5 6 Oeste 10 Oeste 0 -- -- 81
2020-11-02 16:00:00 18.7 6 Oeste 10 Oeste 0 -- -- 81
2020-11-02 15:00:00 18.8 5 Oeste 8 Oeste 0 -- -- 80
2020-11-02 14:00:00 18.8 4 Sudeste 8 Sudeste 0 -- -- 80
2020-11-02 13:00:00 18.3 4 Sudeste 9 Sudeste 0 -- -- 82
2020-11-02 12:00:00 17.1 4 Sudeste 6 Sudeste 0 -- -- 88
2020-11-02 11:00:00 15.8 3 Sudeste 6 Sudeste 0 -- -- 91
2020-11-02 10:00:00 15.4 0 Calma 4 Este 0 -- -- 93
2020-11-02 09:00:00 14 0 Calma 3 Oeste 0 -- -- 96
2020-11-02 08:00:00 13.6 0 Calma 3 Noroeste 0 -- -- 96
2020-11-02 07:00:00 13.8 0 Calma 2 Noroeste 0 -- -- 95
2020-11-02 06:00:00 14.4 0 Calma 3 Sudeste 0 -- -- 94
2020-11-02 05:00:00 14.5 0 Calma 4 Nordeste 0 -- -- 94
2020-11-02 04:00:00 14.5 3 Norte 4 Norte 0 -- -- 95
2020-11-02 03:00:00 14.5 2 Noroeste 3 Oeste 0 -- -- 94
2020-11-02 02:00:00 14.7 0 Calma 2 Noroeste 0 -- -- 93
2020-11-02 01:00:00 15.2 2 Sudeste 4 Sudeste 0 -- -- 91
2020-11-02 00:00:00 15.4 3 Noroeste 4 Oeste 0 -- -- 91